createdAt,value
2022-12-08T00:01:12.158Z,0.64
2022-12-08T00:02:44.606Z,0.58
2022-12-08T00:04:16.420Z,0.50
2022-12-08T00:06:08.146Z,0.44
2022-12-08T00:07:58.330Z,0.43
2022-12-08T00:09:39.347Z,0.36
2022-12-08T00:11:15.230Z,0.30
2022-12-08T00:12:46.823Z,0.24
2022-12-08T00:14:19.141Z,0.27
2022-12-08T00:15:51.248Z,0.28
2022-12-08T00:17:23.087Z,0.33
2022-12-08T00:18:54.928Z,0.28
2022-12-08T00:20:26.609Z,0.18
2022-12-08T00:21:59.930Z,0.10
2022-12-08T00:23:31.811Z,0.10
2022-12-08T00:25:03.981Z,0.08
2022-12-08T00:26:37.090Z,0.02
2022-12-08T00:28:08.947Z,0.03
2022-12-08T00:29:40.702Z,0.10
2022-12-08T00:31:12.988Z,0.05
2022-12-08T00:32:44.592Z,-0.09
2022-12-08T00:34:16.763Z,-0.18
2022-12-08T00:35:48.391Z,-0.23
2022-12-08T00:37:20.407Z,-0.33
2022-12-08T00:38:52.179Z,-0.34
2022-12-08T00:40:23.821Z,-0.35
2022-12-08T00:42:13.901Z,-0.40
2022-12-08T00:43:45.588Z,-0.40
2022-12-08T00:45:17.230Z,-0.35
2022-12-08T00:46:49.654Z,-0.40
2022-12-08T00:48:21.336Z,-0.45
2022-12-08T00:49:52.933Z,-0.52
2022-12-08T00:51:24.834Z,-0.59
2022-12-08T00:52:56.378Z,-0.61
2022-12-08T00:54:28.068Z,-0.57
2022-12-08T00:55:59.666Z,-0.62
2022-12-08T00:57:32.036Z,-0.66
2022-12-08T00:59:05.056Z,-0.70
2022-12-08T01:00:36.673Z,-0.70
2022-12-08T01:02:08.233Z,-0.74
2022-12-08T01:03:42.100Z,-0.73
2022-12-08T01:05:13.743Z,-0.76
2022-12-08T01:06:45.793Z,-0.76
2022-12-08T01:08:18.408Z,-0.82
2022-12-08T01:09:49.999Z,-0.85
2022-12-08T01:11:21.642Z,-0.89
2022-12-08T01:12:53.280Z,-0.95
2022-12-08T01:14:25.026Z,-0.88
2022-12-08T01:15:56.691Z,-0.90
2022-12-08T01:17:28.279Z,-0.92
2022-12-08T01:19:00.433Z,-0.92
2022-12-08T01:20:32.053Z,-0.94
2022-12-08T01:22:03.701Z,-0.94
2022-12-08T01:23:35.363Z,-0.94
2022-12-08T01:25:07.291Z,-0.97
2022-12-08T01:26:39.107Z,-0.99
2022-12-08T01:28:10.799Z,-0.92
2022-12-08T01:29:42.399Z,-0.95
2022-12-08T01:31:17.223Z,-0.98
2022-12-08T01:32:48.918Z,-1.00
2022-12-08T01:34:20.528Z,-1.03
2022-12-08T01:35:52.691Z,-0.94
2022-12-08T01:37:24.272Z,-1.00
2022-12-08T01:38:58.792Z,-1.04
2022-12-08T01:40:30.387Z,-1.11
2022-12-08T01:42:01.922Z,-1.09
2022-12-08T01:44:08.553Z,-1.08
2022-12-08T01:45:40.267Z,-1.09
2022-12-08T01:47:12.047Z,-1.15
2022-12-08T01:48:43.675Z,-1.26
2022-12-08T01:50:19.106Z,-1.34
2022-12-08T01:51:50.735Z,-1.30
2022-12-08T01:53:32.845Z,-1.24
2022-12-08T01:55:10.541Z,-1.24
2022-12-08T01:56:51.681Z,-1.32
2022-12-08T01:58:28.950Z,-1.35
2022-12-08T02:00:09.027Z,-1.27
2022-12-08T02:01:41.071Z,-1.32
2022-12-08T02:03:22.471Z,-1.24
2022-12-08T02:04:54.077Z,-1.25
2022-12-08T02:06:28.636Z,-1.34
2022-12-08T02:08:04.434Z,-1.34
2022-12-08T02:09:38.451Z,-1.37
2022-12-08T02:11:12.326Z,-1.44
2022-12-08T02:12:44.151Z,-1.49
2022-12-08T02:14:15.823Z,-1.48
2022-12-08T02:16:24.274Z,-1.46
2022-12-08T02:18:08.341Z,-1.49
2022-12-08T02:20:17.739Z,-1.54
2022-12-08T02:21:58.742Z,-1.53
2022-12-08T02:23:37.188Z,-1.52
2022-12-08T02:25:37.252Z,-1.53
2022-12-08T02:27:33.978Z,-1.61
2022-12-08T02:29:34.916Z,-1.67
2022-12-08T02:31:34.008Z,-1.69
2022-12-08T02:33:30.432Z,-1.70
2022-12-08T02:35:11.077Z,-1.70
2022-12-08T02:36:53.897Z,-1.71
2022-12-08T02:38:53.427Z,-1.70
2022-12-08T02:40:35.712Z,-1.73
2022-12-08T02:42:22.154Z,-1.79
2022-12-08T02:44:03.009Z,-1.79
2022-12-08T02:46:01.326Z,-1.74
2022-12-08T02:47:34.547Z,-1.80
2022-12-08T02:49:07.189Z,-1.82
2022-12-08T02:50:38.757Z,-1.87
2022-12-08T02:52:10.306Z,-1.79
2022-12-08T02:53:42.131Z,-1.75
2022-12-08T02:55:27.569Z,-1.74
2022-12-08T02:57:05.046Z,-1.73
2022-12-08T02:59:06.031Z,-1.74
2022-12-08T03:01:06.383Z,-1.71
2022-12-08T03:02:52.800Z,-1.79
2022-12-08T03:04:59.104Z,-1.85
2022-12-08T03:06:48.812Z,-1.86
2022-12-08T03:08:43.254Z,-1.82
2022-12-08T03:10:21.782Z,-1.78
2022-12-08T03:12:14.712Z,-1.84
2022-12-08T03:13:53.808Z,-1.92
2022-12-08T03:15:25.708Z,-1.93
2022-12-08T03:16:59.551Z,-1.95
2022-12-08T03:18:34.251Z,-1.94
2022-12-08T03:20:11.582Z,-1.98
2022-12-08T03:21:46.933Z,-1.98
2022-12-08T03:23:20.056Z,-2.01
2022-12-08T03:24:51.849Z,-2.00
2022-12-08T03:26:48.591Z,-2.00
2022-12-08T03:28:20.558Z,-1.97
2022-12-08T03:29:54.540Z,-1.91
2022-12-08T03:31:31.611Z,-1.99
2022-12-08T03:33:18.726Z,-2.05
2022-12-08T03:34:52.332Z,-2.13
2022-12-08T03:36:25.351Z,-2.11
2022-12-08T03:38:10.663Z,-2.19
2022-12-08T03:39:42.591Z,-2.16
2022-12-08T03:41:19.986Z,-2.15
2022-12-08T03:42:51.567Z,-2.23
2022-12-08T03:44:23.217Z,-2.26
2022-12-08T03:45:54.781Z,-2.24
2022-12-08T03:47:26.402Z,-2.21
2022-12-08T03:48:57.994Z,-2.20
2022-12-08T03:50:29.619Z,-2.22
2022-12-08T03:52:01.209Z,-2.27
2022-12-08T03:53:32.817Z,-2.28
2022-12-08T03:55:04.760Z,-2.36
2022-12-08T03:56:38.532Z,-2.42
2022-12-08T03:58:10.129Z,-2.33
2022-12-08T03:59:41.769Z,-2.29
2022-12-08T04:01:13.518Z,-2.32
2022-12-08T04:02:45.340Z,-2.31
2022-12-08T04:04:17.104Z,-2.39
2022-12-08T04:05:48.744Z,-2.40
2022-12-08T04:07:20.337Z,-2.46
2022-12-08T04:08:52.386Z,-2.49
2022-12-08T04:10:24.157Z,-2.43
2022-12-08T04:11:55.738Z,-2.52
2022-12-08T04:13:27.687Z,-2.58
2022-12-08T04:14:59.262Z,-2.59
2022-12-08T04:16:30.875Z,-2.52
2022-12-08T04:18:02.522Z,-2.58
2022-12-08T04:19:34.244Z,-2.64
2022-12-08T04:21:05.842Z,-2.69
2022-12-08T04:22:37.408Z,-2.71
2022-12-08T04:24:09.446Z,-2.71
2022-12-08T04:25:41.098Z,-2.56
2022-12-08T04:27:12.703Z,-2.60
2022-12-08T04:28:44.490Z,-2.65
2022-12-08T04:30:16.174Z,-2.69
2022-12-08T04:31:47.740Z,-2.72
2022-12-08T04:33:19.338Z,-2.80
2022-12-08T04:34:50.910Z,-2.77
2022-12-08T04:36:22.524Z,-2.82
2022-12-08T04:37:54.078Z,-2.73
2022-12-08T04:39:25.685Z,-2.81
2022-12-08T04:40:57.364Z,-2.74
2022-12-08T04:42:28.975Z,-2.73
2022-12-08T04:44:00.583Z,-2.70
2022-12-08T04:45:33.042Z,-2.76
2022-12-08T04:47:04.795Z,-2.85
2022-12-08T04:48:40.102Z,-2.81
2022-12-08T04:50:11.919Z,-2.80
2022-12-08T04:51:43.483Z,-2.84
2022-12-08T04:53:15.257Z,-2.86
2022-12-08T04:54:47.048Z,-2.88
2022-12-08T04:56:19.239Z,-2.88
2022-12-08T04:57:51.157Z,-2.92
2022-12-08T04:59:22.717Z,-2.90
2022-12-08T05:00:54.352Z,-2.95
2022-12-08T05:02:26.066Z,-2.99
2022-12-08T05:03:57.844Z,-3.03
2022-12-08T05:05:29.385Z,-3.07
2022-12-08T05:07:01.093Z,-3.08
2022-12-08T05:08:33.286Z,-3.06
2022-12-08T05:10:05.960Z,-3.06
2022-12-08T05:11:48.376Z,-3.13
2022-12-08T05:13:20.548Z,-3.12
2022-12-08T05:14:52.170Z,-3.10
2022-12-08T05:16:23.887Z,-3.11
2022-12-08T05:17:55.587Z,-3.11
2022-12-08T05:19:27.260Z,-3.12
2022-12-08T05:20:59.064Z,-3.13
2022-12-08T05:22:30.868Z,-3.15
2022-12-08T05:24:02.560Z,-3.13
2022-12-08T05:25:34.153Z,-3.10
2022-12-08T05:27:06.118Z,-3.12
2022-12-08T05:28:42.781Z,-3.15
2022-12-08T05:30:15.199Z,-3.10
2022-12-08T05:31:46.835Z,-3.00
2022-12-08T05:33:18.522Z,-3.02
2022-12-08T05:34:50.194Z,-3.08
2022-12-08T05:36:21.912Z,-3.14
2022-12-08T05:37:53.944Z,-3.24
2022-12-08T05:39:25.807Z,-3.25
2022-12-08T05:40:57.436Z,-3.27
2022-12-08T05:42:29.049Z,-3.29
2022-12-08T05:44:00.667Z,-3.26
2022-12-08T05:45:32.401Z,-3.20
2022-12-08T05:47:04.151Z,-3.22
2022-12-08T05:48:35.968Z,-3.29
2022-12-08T05:50:08.046Z,-3.21
2022-12-08T05:51:39.671Z,-3.21
2022-12-08T05:53:11.262Z,-3.22
2022-12-08T05:54:42.834Z,-3.25
2022-12-08T05:56:15.402Z,-3.09
2022-12-08T05:57:47.073Z,-3.07
2022-12-08T05:59:18.638Z,-3.11
2022-12-08T06:00:51.314Z,-3.22
2022-12-08T06:02:23.146Z,-3.25
2022-12-08T06:03:56.206Z,-3.27
2022-12-08T06:05:28.460Z,-3.26
2022-12-08T06:07:00.032Z,-3.26
2022-12-08T06:08:31.840Z,-3.27
2022-12-08T06:10:04.665Z,-3.26
2022-12-08T06:11:36.540Z,-3.24
2022-12-08T06:13:08.439Z,-3.30
2022-12-08T06:14:40.218Z,-3.33
2022-12-08T06:16:11.933Z,-3.36
2022-12-08T06:17:43.839Z,-3.39
2022-12-08T06:19:16.007Z,-3.37
2022-12-08T06:20:47.845Z,-3.38
2022-12-08T06:22:19.747Z,-3.36
2022-12-08T06:23:53.448Z,-3.34
2022-12-08T06:25:25.440Z,-3.31
2022-12-08T06:26:57.109Z,-3.37
2022-12-08T06:28:30.306Z,-3.40
2022-12-08T06:30:02.244Z,-3.39
2022-12-08T06:31:34.242Z,-3.38
2022-12-08T06:33:05.840Z,-3.39
2022-12-08T06:34:37.845Z,-3.44
2022-12-08T06:36:12.973Z,-3.45
2022-12-08T06:37:44.584Z,-3.47
2022-12-08T06:39:16.203Z,-3.50
2022-12-08T06:40:54.377Z,-3.51
2022-12-08T06:42:44.196Z,-3.53
2022-12-08T06:44:15.792Z,-3.50
2022-12-08T06:45:47.662Z,-3.52
2022-12-08T06:47:26.051Z,-3.48
2022-12-08T06:48:58.587Z,-3.51
2022-12-08T06:50:30.177Z,-3.56
2022-12-08T06:52:01.879Z,-3.53
2022-12-08T06:53:33.476Z,-3.42
2022-12-08T06:55:05.603Z,-3.38
2022-12-08T06:56:37.230Z,-3.41
2022-12-08T06:58:08.897Z,-3.48
2022-12-08T06:59:40.474Z,-3.55
2022-12-08T07:01:13.778Z,-3.55
2022-12-08T07:02:45.455Z,-3.48
2022-12-08T07:04:17.205Z,-3.48
2022-12-08T07:05:48.905Z,-3.46
2022-12-08T07:07:20.493Z,-3.42
2022-12-08T07:08:52.231Z,-3.43
2022-12-08T07:10:23.873Z,-3.46
2022-12-08T07:11:55.443Z,-3.45
2022-12-08T07:13:27.088Z,-3.33
2022-12-08T07:14:59.024Z,-3.35
2022-12-08T07:16:30.868Z,-3.41
2022-12-08T07:18:02.564Z,-3.45
2022-12-08T07:19:34.250Z,-3.44
2022-12-08T07:21:08.600Z,-3.40
2022-12-08T07:22:40.249Z,-3.35
2022-12-08T07:24:12.365Z,-3.34
2022-12-08T07:25:44.127Z,-3.29
2022-12-08T07:27:15.917Z,-3.13
2022-12-08T07:28:47.734Z,-3.13
2022-12-08T07:30:20.552Z,-3.24
2022-12-08T07:31:53.747Z,-3.21
2022-12-08T07:33:25.645Z,-3.25
2022-12-08T07:34:57.222Z,-3.22
2022-12-08T07:36:28.940Z,-3.16
2022-12-08T07:38:00.737Z,-3.19
2022-12-08T07:39:32.810Z,-3.16
2022-12-08T07:41:11.939Z,-3.16
2022-12-08T07:42:44.901Z,-3.09
2022-12-08T07:44:17.594Z,-3.04
2022-12-08T07:45:50.979Z,-3.11
2022-12-08T07:47:23.513Z,-3.19
2022-12-08T07:48:56.010Z,-3.18
2022-12-08T07:50:28.660Z,-3.12
2022-12-08T07:52:01.167Z,-3.08
2022-12-08T07:53:34.585Z,-3.03
2022-12-08T07:55:08.209Z,-2.99
2022-12-08T07:56:41.628Z,-3.05
2022-12-08T07:58:14.187Z,-3.11
2022-12-08T07:59:48.078Z,-3.13
2022-12-08T08:01:31.919Z,-3.18
2022-12-08T08:03:05.174Z,-3.14
2022-12-08T08:04:38.325Z,-3.06
2022-12-08T08:06:10.967Z,-3.01
2022-12-08T08:07:44.199Z,-3.03
2022-12-08T08:09:16.576Z,-2.99
2022-12-08T08:10:48.257Z,-2.96
2022-12-08T08:12:31.245Z,-2.93
2022-12-08T08:14:05.218Z,-2.98
2022-12-08T08:15:38.995Z,-2.93
2022-12-08T08:17:11.372Z,-2.82
2022-12-08T08:18:44.898Z,-2.74
2022-12-08T08:20:19.015Z,-2.79
2022-12-08T08:21:52.079Z,-2.79
2022-12-08T08:23:24.812Z,-2.79
2022-12-08T08:24:58.013Z,-2.74
2022-12-08T08:26:31.267Z,-2.72
2022-12-08T08:28:03.362Z,-2.70
2022-12-08T08:29:35.733Z,-2.70
2022-12-08T08:31:08.171Z,-2.67
2022-12-08T08:32:40.830Z,-2.64
2022-12-08T08:34:13.140Z,-2.61
2022-12-08T08:35:46.835Z,-2.56
2022-12-08T08:37:20.566Z,-2.55
2022-12-08T08:38:52.742Z,-2.53
2022-12-08T08:40:25.654Z,-2.53
2022-12-08T08:41:58.762Z,-2.51
2022-12-08T08:43:37.554Z,-2.51
2022-12-08T08:45:11.718Z,-2.49
2022-12-08T08:46:44.718Z,-2.49
2022-12-08T08:48:17.136Z,-2.47
2022-12-08T08:49:49.208Z,-2.45
2022-12-08T08:51:21.877Z,-2.40
2022-12-08T08:52:54.155Z,-2.35
2022-12-08T08:54:26.305Z,-2.33
2022-12-08T08:55:58.691Z,-2.30
2022-12-08T08:57:31.119Z,-2.36
2022-12-08T08:59:04.028Z,-2.32
2022-12-08T09:00:37.741Z,-2.32
2022-12-08T09:02:18.132Z,-2.32
2022-12-08T09:03:50.848Z,-2.20
2022-12-08T09:05:23.606Z,-2.21
2022-12-08T09:06:57.026Z,-2.22
2022-12-08T09:08:29.354Z,-2.20
2022-12-08T09:10:02.008Z,-2.14
2022-12-08T09:11:34.804Z,-2.04
2022-12-08T09:13:07.109Z,-2.02
2022-12-08T09:14:39.894Z,-2.01
2022-12-08T09:16:12.812Z,-1.97
2022-12-08T09:17:45.420Z,-1.95
2022-12-08T09:19:17.734Z,-1.97
2022-12-08T09:20:49.994Z,-1.95
2022-12-08T09:22:22.547Z,-1.88
2022-12-08T09:23:58.099Z,-1.78
2022-12-08T09:25:30.944Z,-1.71
2022-12-08T09:27:04.253Z,-1.76
2022-12-08T09:28:37.286Z,-1.75
2022-12-08T09:30:11.307Z,-1.76
2022-12-08T09:31:45.130Z,-1.77
2022-12-08T09:33:19.008Z,-1.75
2022-12-08T09:34:52.570Z,-1.67
2022-12-08T09:36:25.923Z,-1.65
2022-12-08T09:37:57.957Z,-1.61
2022-12-08T09:39:31.523Z,-1.57
2022-12-08T09:41:14.323Z,-1.55
2022-12-08T09:43:05.589Z,-1.49
2022-12-08T09:44:45.005Z,-1.46
2022-12-08T09:46:20.826Z,-1.48
2022-12-08T09:48:06.502Z,-1.46
2022-12-08T09:49:47.266Z,-1.42
2022-12-08T09:51:20.287Z,-1.37
2022-12-08T09:53:15.560Z,-1.32
2022-12-08T09:54:47.465Z,-1.31
2022-12-08T09:56:22.848Z,-1.22
2022-12-08T09:58:03.534Z,-1.19
2022-12-08T09:59:36.523Z,-1.20
2022-12-08T10:01:12.632Z,-1.15
2022-12-08T10:02:48.212Z,-1.16
2022-12-08T10:04:26.154Z,-1.09
2022-12-08T10:06:28.208Z,-1.01
2022-12-08T10:08:16.929Z,-0.99
2022-12-08T10:10:07.053Z,-1.03
2022-12-08T10:12:04.365Z,-0.98
2022-12-08T10:13:50.682Z,-0.95
2022-12-08T10:15:28.815Z,-0.94
2022-12-08T10:17:06.607Z,-0.86
2022-12-08T10:18:38.539Z,-0.87
2022-12-08T10:20:17.238Z,-0.84
2022-12-08T10:21:49.862Z,-0.68
2022-12-08T10:23:30.597Z,-0.57
2022-12-08T10:25:06.325Z,-0.51
2022-12-08T10:26:38.276Z,-0.55
2022-12-08T10:28:11.686Z,-0.47
2022-12-08T10:29:44.360Z,-0.42
2022-12-08T10:31:23.379Z,-0.43
2022-12-08T10:32:56.132Z,-0.48
2022-12-08T10:34:29.063Z,-0.52
2022-12-08T10:36:06.253Z,-0.48
2022-12-08T10:37:39.883Z,-0.49
2022-12-08T10:39:31.236Z,-0.48
2022-12-08T10:41:05.489Z,-0.46
2022-12-08T10:42:49.251Z,-0.43
2022-12-08T10:44:21.950Z,-0.32
2022-12-08T10:45:55.511Z,-0.28
2022-12-08T10:47:30.181Z,-0.15
2022-12-08T10:49:06.992Z,-0.03
2022-12-08T10:50:44.141Z,0.06
2022-12-08T10:52:26.269Z,0.31
2022-12-08T10:54:00.336Z,0.47
2022-12-08T10:55:46.444Z,0.58
2022-12-08T10:57:22.627Z,0.56
2022-12-08T10:59:21.228Z,0.65
2022-12-08T11:00:59.974Z,0.78
2022-12-08T11:02:32.901Z,2.01
2022-12-08T11:04:12.881Z,4.97
2022-12-08T11:05:45.074Z,8.37
2022-12-08T11:07:23.123Z,11.70
2022-12-08T11:09:04.853Z,13.39
2022-12-08T11:10:44.201Z,13.36
2022-12-08T11:12:21.338Z,14.96
2022-12-08T11:13:54.963Z,15.77
2022-12-08T11:15:35.680Z,16.68
2022-12-08T11:17:25.386Z,16.53
2022-12-08T11:18:59.224Z,17.82
2022-12-08T11:20:41.309Z,14.03
2022-12-08T11:22:34.119Z,10.25
2022-12-08T11:24:21.682Z,9.46
2022-12-08T11:25:56.934Z,8.94
2022-12-08T11:27:33.714Z,10.21
2022-12-08T11:29:05.655Z,10.42
2022-12-08T11:30:41.623Z,9.47
2022-12-08T11:32:13.788Z,9.06
2022-12-08T11:33:48.175Z,13.80
2022-12-08T11:35:29.199Z,15.60
2022-12-08T11:37:09.537Z,12.34
2022-12-08T11:38:46.901Z,8.46
2022-12-08T11:40:37.876Z,6.16
2022-12-08T11:42:14.941Z,5.54
2022-12-08T11:44:06.004Z,5.19
2022-12-08T11:45:40.903Z,4.38
2022-12-08T11:47:24.970Z,4.12
2022-12-08T11:49:06.405Z,3.75
2022-12-08T11:50:53.418Z,3.75
2022-12-08T11:52:33.808Z,3.54
2022-12-08T11:54:13.297Z,3.53
2022-12-08T11:55:55.248Z,3.52
2022-12-08T11:57:29.936Z,3.48
2022-12-08T11:59:08.591Z,3.42
2022-12-08T12:00:40.598Z,3.36
2022-12-08T12:02:17.508Z,3.32
2022-12-08T12:04:13.854Z,3.14
2022-12-08T12:06:37.592Z,3.07
2022-12-08T12:08:14.995Z,2.97
2022-12-08T12:10:21.297Z,2.89
2022-12-08T12:12:19.179Z,2.81
2022-12-08T12:13:59.107Z,2.88
2022-12-08T12:15:39.870Z,2.95
2022-12-08T12:17:21.051Z,3.04
2022-12-08T12:18:58.048Z,2.99
2022-12-08T12:20:50.187Z,2.88
2022-12-08T12:22:23.228Z,2.86
2022-12-08T12:24:04.333Z,2.90
2022-12-08T12:25:36.981Z,2.98
2022-12-08T12:27:14.970Z,3.05
2022-12-08T12:28:57.396Z,3.21
2022-12-08T12:30:56.978Z,3.25
2022-12-08T12:32:53.347Z,3.34
2022-12-08T12:34:29.360Z,3.36
2022-12-08T12:36:08.379Z,3.29
2022-12-08T12:37:44.658Z,3.16
2022-12-08T12:39:22.310Z,3.16
2022-12-08T12:41:04.867Z,3.23
2022-12-08T12:42:44.629Z,3.17
2022-12-08T12:44:22.770Z,3.13
2022-12-08T12:46:23.182Z,3.22
2022-12-08T12:48:00.585Z,3.20
2022-12-08T12:49:41.318Z,3.23
2022-12-08T12:51:54.007Z,3.23
2022-12-08T12:53:25.610Z,3.26
2022-12-08T12:54:57.203Z,3.25
2022-12-08T12:56:58.092Z,3.27
2022-12-08T12:58:30.534Z,3.20
2022-12-08T13:00:02.391Z,3.21
2022-12-08T13:01:46.462Z,3.12
2022-12-08T13:03:18.607Z,3.14
2022-12-08T13:05:17.024Z,3.03
2022-12-08T13:06:50.535Z,3.02
2022-12-08T13:08:27.390Z,2.92
2022-12-08T13:10:11.121Z,2.87
2022-12-08T13:11:53.871Z,2.82
2022-12-08T13:13:25.964Z,2.79
2022-12-08T13:15:05.619Z,2.80
2022-12-08T13:16:39.675Z,2.82
2022-12-08T13:18:49.522Z,2.80
2022-12-08T13:20:24.948Z,2.84
2022-12-08T13:21:56.994Z,2.86
2022-12-08T13:23:38.102Z,2.89
2022-12-08T13:25:44.112Z,2.89
2022-12-08T13:27:30.520Z,2.87
2022-12-08T13:29:03.727Z,2.88
2022-12-08T13:30:50.791Z,2.83
2022-12-08T13:32:35.430Z,2.83
2022-12-08T13:34:43.175Z,2.82
2022-12-08T13:36:33.922Z,2.71
2022-12-08T13:38:08.496Z,2.62
2022-12-08T13:39:42.170Z,2.68
2022-12-08T13:41:22.923Z,2.68
2022-12-08T13:43:19.794Z,2.66
2022-12-08T13:45:27.903Z,2.66
2022-12-08T13:47:32.699Z,2.58
2022-12-08T13:56:43.313Z,2.63
2022-12-08T13:57:26.732Z,2.63
2022-12-08T13:59:10.316Z,2.63
2022-12-08T14:00:43.647Z,2.63
2022-12-08T14:02:29.302Z,2.62
2022-12-08T14:04:34.039Z,2.59
2022-12-08T14:06:13.425Z,2.62
2022-12-08T14:07:50.345Z,2.56
2022-12-08T14:09:27.540Z,2.55
2022-12-08T14:11:07.067Z,2.52
2022-12-08T14:12:49.826Z,2.51
2022-12-08T14:14:53.676Z,2.50
2022-12-08T14:16:34.521Z,2.44
2022-12-08T14:18:22.160Z,2.49
2022-12-08T14:20:13.176Z,2.42
2022-12-08T14:21:56.811Z,2.51
2022-12-08T14:23:30.673Z,2.39
2022-12-08T14:25:06.222Z,2.30
2022-12-08T14:26:38.985Z,2.29
2022-12-08T14:28:12.902Z,2.29
2022-12-08T14:29:57.445Z,2.27
2022-12-08T14:31:31.177Z,2.28
2022-12-08T14:33:05.901Z,2.29
2022-12-08T14:34:41.099Z,2.28
2022-12-08T14:36:16.813Z,2.27
2022-12-08T14:37:51.720Z,2.25
2022-12-08T14:39:25.106Z,2.25
2022-12-08T14:41:08.200Z,2.26
2022-12-08T14:42:50.826Z,2.24
2022-12-08T14:44:24.795Z,2.25
2022-12-08T14:46:03.443Z,2.25
2022-12-08T14:47:36.291Z,2.23
2022-12-08T14:49:33.323Z,2.29
2022-12-08T14:51:25.096Z,2.41
2022-12-08T14:52:58.259Z,2.49
2022-12-08T14:54:31.641Z,2.50
2022-12-08T14:56:09.976Z,2.47
2022-12-08T14:57:43.755Z,2.44
2022-12-08T14:59:19.672Z,2.38
2022-12-08T15:00:59.022Z,2.29
2022-12-08T15:02:33.347Z,2.25
2022-12-08T15:04:29.761Z,2.24
2022-12-08T15:06:07.027Z,2.19
2022-12-08T15:07:53.694Z,2.23
2022-12-08T15:09:42.358Z,2.27
2022-12-08T15:11:30.455Z,2.31
2022-12-08T15:13:11.665Z,2.27
2022-12-08T15:14:59.857Z,2.22
2022-12-08T15:16:39.988Z,2.21
2022-12-08T15:18:17.980Z,2.19
2022-12-08T15:19:57.215Z,2.19
2022-12-08T15:21:33.319Z,2.20
2022-12-08T15:23:08.391Z,2.15
2022-12-08T15:24:41.751Z,2.14
2022-12-08T15:26:24.227Z,2.11
2022-12-08T15:27:58.774Z,2.09
2022-12-08T15:29:31.583Z,2.00
2022-12-08T15:31:04.402Z,1.98
2022-12-08T15:32:38.335Z,2.01
2022-12-08T15:34:12.253Z,2.09
2022-12-08T15:35:46.675Z,1.93
2022-12-08T15:37:27.626Z,1.89
2022-12-08T15:38:59.666Z,1.96
2022-12-08T15:40:31.385Z,1.90
2022-12-08T15:42:06.456Z,1.89
2022-12-08T15:43:38.116Z,1.86
2022-12-08T15:45:18.038Z,1.83
2022-12-08T15:46:50.766Z,1.88
2022-12-08T15:48:26.871Z,1.88
2022-12-08T15:49:59.112Z,1.89
2022-12-08T15:51:36.516Z,1.88
2022-12-08T15:53:10.975Z,1.83
2022-12-08T15:54:42.749Z,1.85
2022-12-08T15:56:30.097Z,1.80
2022-12-08T15:58:51.745Z,1.89
2022-12-08T15:59:53.673Z,1.87
2022-12-08T16:01:26.304Z,1.88
2022-12-08T16:03:27.648Z,1.85
2022-12-08T16:07:19.536Z,1.73
2022-12-08T16:08:49.665Z,1.68
2022-12-08T16:10:45.427Z,1.72
2022-12-08T16:13:40.415Z,1.70
2022-12-08T16:16:30.670Z,1.65
2022-12-08T16:18:03.810Z,1.65
2022-12-08T16:19:36.565Z,1.74
2022-12-08T16:21:31.670Z,1.68
2022-12-08T16:23:26.433Z,1.64
2022-12-08T16:24:55.293Z,1.58
2022-12-08T16:27:28.582Z,1.60
2022-12-08T16:30:15.592Z,1.55
2022-12-08T16:31:47.774Z,1.55
2022-12-08T16:33:20.015Z,1.60
2022-12-08T16:34:53.001Z,1.62
2022-12-08T16:36:25.133Z,1.57
2022-12-08T16:37:57.810Z,1.53
2022-12-08T16:39:29.732Z,1.48
2022-12-08T16:41:21.196Z,1.46
2022-12-08T16:42:53.650Z,1.42
2022-12-08T16:44:25.919Z,1.41
2022-12-08T16:45:57.969Z,1.53
2022-12-08T16:47:30.998Z,1.45
2022-12-08T16:49:03.642Z,1.44
2022-12-08T16:50:35.632Z,1.39
2022-12-08T16:52:07.649Z,1.41
2022-12-08T16:53:40.215Z,1.39
2022-12-08T16:55:14.813Z,1.33
2022-12-08T16:56:46.510Z,1.38
2022-12-08T16:58:21.461Z,1.34
2022-12-08T16:59:54.218Z,1.30
2022-12-08T17:01:26.179Z,1.26
2022-12-08T17:02:58.983Z,1.26
2022-12-08T17:04:32.376Z,1.27
2022-12-08T17:06:17.794Z,1.37
2022-12-08T17:07:52.157Z,1.36
2022-12-08T17:09:25.463Z,1.33
2022-12-08T17:11:07.675Z,1.27
2022-12-08T17:12:39.855Z,1.26
2022-12-08T17:14:13.138Z,1.31
2022-12-08T17:15:44.912Z,1.30
2022-12-08T17:17:16.603Z,1.30
2022-12-08T17:18:48.804Z,1.40
2022-12-08T17:20:23.821Z,1.38
2022-12-08T17:21:55.976Z,1.33
2022-12-08T17:23:27.757Z,1.31
2022-12-08T17:24:59.462Z,1.30
2022-12-08T17:26:31.259Z,1.28
2022-12-08T17:28:03.466Z,1.32
2022-12-08T17:29:35.278Z,1.28
2022-12-08T17:31:12.708Z,1.24
2022-12-08T17:32:45.254Z,1.21
2022-12-08T17:34:19.373Z,1.20
2022-12-08T17:35:54.849Z,1.13
2022-12-08T17:37:27.533Z,1.11
2022-12-08T17:39:01.167Z,1.10
2022-12-08T17:40:33.103Z,1.04
2022-12-08T17:42:07.096Z,0.98
2022-12-08T17:43:39.039Z,0.90
2022-12-08T17:45:11.237Z,0.98
2022-12-08T17:46:49.088Z,1.05
2022-12-08T17:48:25.254Z,0.93
2022-12-08T17:49:57.877Z,0.92
2022-12-08T17:51:29.497Z,0.81
2022-12-08T17:53:01.177Z,0.73
2022-12-08T17:54:32.935Z,0.67
2022-12-08T17:56:04.906Z,0.62
2022-12-08T17:57:37.273Z,0.57
2022-12-08T17:59:09.661Z,0.58
2022-12-08T18:00:41.607Z,0.55
2022-12-08T18:02:14.718Z,0.58
2022-12-08T18:03:49.162Z,0.48
2022-12-08T18:05:24.613Z,0.37
2022-12-08T18:07:00.802Z,0.36
2022-12-08T18:08:33.876Z,0.37
2022-12-08T18:10:07.572Z,0.31
2022-12-08T18:11:41.456Z,0.25
2022-12-08T18:13:13.890Z,0.20
2022-12-08T18:14:47.867Z,0.13
2022-12-08T18:16:23.847Z,0.05
2022-12-08T18:17:55.770Z,-0.03
2022-12-08T18:19:27.987Z,-0.07
2022-12-08T18:21:01.096Z,-0.07
2022-12-08T18:22:32.895Z,-0.08
2022-12-08T18:24:05.633Z,-0.15
2022-12-08T18:25:38.258Z,-0.18
2022-12-08T18:27:10.191Z,0.06
2022-12-08T18:28:42.622Z,-0.14
2022-12-08T18:30:18.169Z,-0.28
2022-12-08T18:31:52.111Z,-0.29
2022-12-08T18:33:23.853Z,-0.37
2022-12-08T18:34:56.448Z,-0.38
2022-12-08T18:36:28.922Z,-0.42
2022-12-08T18:38:02.061Z,-0.44
2022-12-08T18:39:35.951Z,-0.53
2022-12-08T18:41:21.240Z,-0.62
2022-12-08T18:42:54.766Z,-0.65
2022-12-08T18:44:28.470Z,-0.67
2022-12-08T18:46:08.582Z,-0.71
2022-12-08T18:47:41.852Z,-0.76
2022-12-08T18:49:18.110Z,-0.79
2022-12-08T18:50:50.856Z,-0.80
2022-12-08T18:52:31.018Z,-0.87
2022-12-08T18:54:05.273Z,-0.92
2022-12-08T18:55:38.190Z,-0.95
2022-12-08T18:57:10.887Z,-0.98
2022-12-08T18:58:43.608Z,-0.98
2022-12-08T19:00:18.778Z,-1.00
2022-12-08T19:01:52.352Z,-0.93
2022-12-08T19:03:26.003Z,-0.96
2022-12-08T19:04:58.853Z,-0.82
2022-12-08T19:06:31.507Z,-0.71
2022-12-08T19:08:04.057Z,-0.72
2022-12-08T19:09:38.721Z,-0.87
2022-12-08T19:11:23.381Z,-0.99
2022-12-08T19:12:57.213Z,-1.01
2022-12-08T19:14:30.929Z,-1.07
2022-12-08T19:16:04.962Z,-1.03
2022-12-08T19:17:37.335Z,-1.10
2022-12-08T19:19:09.511Z,-1.07
2022-12-08T19:20:42.965Z,-1.17
2022-12-08T19:22:16.043Z,-1.22
2022-12-08T19:23:48.257Z,-1.16
2022-12-08T19:25:22.093Z,-1.08
2022-12-08T19:26:54.550Z,-1.09
2022-12-08T19:28:27.291Z,-1.08
2022-12-08T19:30:00.909Z,-1.19
2022-12-08T19:31:35.317Z,-1.03
2022-12-08T19:33:09.674Z,-1.13
2022-12-08T19:34:44.591Z,-1.26
2022-12-08T19:36:20.530Z,-1.34
2022-12-08T19:37:55.252Z,-1.41
2022-12-08T19:39:46.243Z,-1.47
2022-12-08T19:41:37.574Z,-1.46
2022-12-08T19:43:38.298Z,-1.48
2022-12-08T19:45:22.707Z,-1.50
2022-12-08T19:46:56.672Z,-1.55
2022-12-08T19:48:30.442Z,-1.50
2022-12-08T19:50:22.969Z,-1.54
2022-12-08T19:51:57.111Z,-1.58
2022-12-08T19:53:31.282Z,-1.53
2022-12-08T19:55:05.731Z,-1.59
2022-12-08T19:56:39.276Z,-1.69
2022-12-08T19:58:13.031Z,-1.67
2022-12-08T19:59:45.837Z,-1.61
2022-12-08T20:01:18.826Z,-1.61
2022-12-08T20:02:53.396Z,-1.61
2022-12-08T20:04:28.463Z,-1.44
2022-12-08T20:06:02.986Z,-1.44
2022-12-08T20:07:37.221Z,-1.61
2022-12-08T20:09:12.714Z,-1.64
2022-12-08T20:10:46.262Z,-1.73
2022-12-08T20:12:20.168Z,-1.72
2022-12-08T20:13:53.599Z,-1.70
2022-12-08T20:15:26.369Z,-1.74
2022-12-08T20:16:59.386Z,-1.80
2022-12-08T20:18:36.633Z,-1.65
2022-12-08T20:20:10.455Z,-1.64
2022-12-08T20:21:43.331Z,-1.73
2022-12-08T20:23:17.273Z,-1.65
2022-12-08T20:24:57.256Z,-1.73
2022-12-08T20:26:32.419Z,-1.85
2022-12-08T20:28:05.804Z,-1.85
2022-12-08T20:29:40.144Z,-1.77
2022-12-08T20:31:27.364Z,-1.78
2022-12-08T20:33:00.545Z,-1.86
2022-12-08T20:34:34.745Z,-1.76
2022-12-08T20:36:08.818Z,-1.83
2022-12-08T20:37:43.040Z,-1.85
2022-12-08T20:39:18.642Z,-1.83
2022-12-08T20:40:51.949Z,-1.90
2022-12-08T20:42:27.029Z,-2.01
2022-12-08T20:44:00.643Z,-2.12
2022-12-08T20:45:33.911Z,-2.16
2022-12-08T20:47:07.958Z,-2.22
2022-12-08T20:48:44.606Z,-2.19
2022-12-08T20:50:17.794Z,-2.25
2022-12-08T20:51:52.959Z,-2.30
2022-12-08T20:53:26.813Z,-2.09
2022-12-08T20:55:00.155Z,-2.18
2022-12-08T20:56:35.067Z,-2.28
2022-12-08T20:58:10.606Z,-2.31
2022-12-08T20:59:43.628Z,-2.21
2022-12-08T21:01:20.286Z,-2.27
2022-12-08T21:02:56.763Z,-2.40
2022-12-08T21:04:32.339Z,-2.45
2022-12-08T21:06:05.665Z,-2.49
2022-12-08T21:07:39.475Z,-2.49
2022-12-08T21:09:11.780Z,-2.46
2022-12-08T21:10:46.755Z,-2.53